Time;durP1;ratioP1;P1;durP2;ratioP2;P2;SDS_P1;SDS_P2;PMS_P1;PMS_P2;Temp;Humidity;BMP_temperature;BMP_pressure;BME280_temperature;BME280_humidity;BME280_pressure;Samples;Min_cycle;Max_cycle;Signal;HPM_P1;HPM_P2
2022/12/29 00:05:26;;;;;;;1.98;1.85;;;;;;;1.44;62.57;101214.22;18421886;32;20145;-56
2022/12/29 00:15:38;;;;;;;2.17;2.08;;;;;;;1.42;62.79;101227.00;18421679;32;20097;-56
2022/12/29 00:36:06;;;;;;;2.65;2.55;;;;;;;1.49;62.57;101223.94;18420544;32;20130;-56
2022/12/29 00:46:11;;;;;;;0.90;0.90;;;;;;;1.48;62.15;101216.16;18420434;32;20081;-56
2022/12/29 00:56:22;;;;;;;2.62;2.47;;;;;;;1.47;62.22;101199.81;18419716;32;20639;-56
2022/12/29 01:06:26;;;;;;;0.80;0.80;;;;;;;1.42;62.12;101206.44;18419476;32;20097;-57
2022/12/29 01:16:29;;;;;;;1.05;1.05;;;;;;;1.21;62.70;101219.16;18418687;32;20483;-56
2022/12/29 01:26:34;;;;;;;3.23;2.50;;;;;;;1.27;62.56;101216.84;18355905;32;20158;-56
2022/12/29 01:36:37;;;;;;;0.70;0.70;;;;;;;1.06;62.85;101224.41;18359726;32;20160;-56
2022/12/29 01:46:44;;;;;;;1.62;1.52;;;;;;;1.15;62.76;101214.59;18362948;32;20133;-56
2022/12/29 01:56:47;;;;;;;4.00;3.62;;;;;;;1.18;62.49;101201.88;18363166;32;20097;-56
2022/12/29 02:06:54;;;;;;;2.00;1.90;;;;;;;1.19;62.96;101205.34;18362872;32;20116;-56
2022/12/29 02:17:06;;;;;;;1.70;1.60;;;;;;;1.04;63.20;101197.72;18362475;32;20104;-56
2022/12/29 02:27:39;;;;;;;0.80;0.80;;;;;;;1.16;62.65;101184.59;18362094;32;20113;-56
2022/12/29 02:37:47;;;;;;;0.77;0.77;;;;;;;1.14;62.69;101184.53;18425403;32;20131;-56
2022/12/29 02:47:55;;;;;;;1.20;1.20;;;;;;;1.10;63.08;101159.47;18424908;32;20121;-56
2022/12/29 02:58:17;;;;;;;0.73;0.73;;;;;;;1.14;62.83;101163.06;18421794;32;20117;-56
2022/12/29 03:08:24;;;;;;;2.40;2.30;;;;;;;1.02;63.26;101164.22;18445120;32;20424;-56
2022/12/29 03:18:35;;;;;;;0.80;0.80;;;;;;;1.23;62.72;101154.12;18560074;32;20105;-56
2022/12/29 03:28:41;;;;;;;0.90;0.90;;;;;;;1.10;63.12;101152.63;18324722;32;20105;-56
2022/12/29 03:38:49;;;;;;;9.27;3.90;;;;;;;0.95;63.21;101155.34;18291620;32;20086;-56
2022/12/29 03:48:52;;;;;;;1.07;1.07;;;;;;;1.22;62.62;101146.31;18291794;31;74335;-58
2022/12/29 03:58:57;;;;;;;0.70;0.70;;;;;;;1.17;62.94;101146.09;18694114;31;20087;-56
2022/12/29 04:09:01;;;;;;;2.47;1.67;;;;;;;1.06;63.92;101140.41;18693555;31;20372;-56
2022/12/29 04:19:06;;;;;;;0.60;0.60;;;;;;;1.16;63.90;101128.91;18694166;31;20140;-56
2022/12/29 04:29:09;;;;;;;2.55;2.42;;;;;;;1.41;63.05;101139.47;18692988;31;20425;-57
2022/12/29 04:39:14;;;;;;;1.12;1.12;;;;;;;1.47;63.09;101135.50;18692632;31;20607;-56
2022/12/29 04:49:17;;;;;;;0.80;0.80;;;;;;;1.22;64.00;101131.75;18692108;31;20096;-56
2022/12/29 04:59:22;;;;;;;0.82;0.82;;;;;;;1.50;64.49;101138.19;18691996;31;20377;-56
2022/12/29 05:09:25;;;;;;;0.77;0.77;;;;;;;1.64;65.05;101148.28;18690942;31;20100;-56
2022/12/29 05:19:29;;;;;;;0.90;0.90;;;;;;;1.92;64.36;101144.38;18690902;31;20515;-56
2022/12/29 05:29:32;;;;;;;0.80;0.80;;;;;;;1.72;64.06;101146.94;18690175;31;20092;-56
2022/12/29 05:39:37;;;;;;;1.17;1.17;;;;;;;1.64;64.26;101137.97;18690109;31;20475;-56
2022/12/29 05:49:40;;;;;;;0.80;0.80;;;;;;;1.70;63.74;101137.38;18688853;31;20092;-57
2022/12/29 05:59:44;;;;;;;0.82;0.82;;;;;;;1.74;63.65;101132.44;18688440;31;20151;-57
2022/12/29 06:09:47;;;;;;;0.70;0.70;;;;;;;1.67;64.61;101120.09;18687821;31;20080;-56
2022/12/29 06:19:52;;;;;;;0.80;0.80;;;;;;;1.49;65.72;101122.72;18682725;31;20106;-57
2022/12/29 06:29:56;;;;;;;0.70;0.70;;;;;;;1.87;64.74;101122.69;18694848;31;20105;-56
2022/12/29 06:40:00;;;;;;;0.90;0.90;;;;;;;1.78;64.24;101124.03;18695281;31;20106;-57
2022/12/29 06:50:04;;;;;;;0.75;0.75;;;;;;;1.73;64.06;101116.91;18694846;31;20088;-57
2022/12/29 07:00:10;;;;;;;0.77;0.77;;;;;;;1.61;64.52;101132.66;18695532;31;20099;-57
2022/12/29 07:10:13;;;;;;;0.70;0.70;;;;;;;1.81;64.41;101143.88;18695333;31;20156;-57
2022/12/29 07:20:18;;;;;;;1.80;1.73;;;;;;;2.06;64.66;101137.28;18695112;31;20114;-57
2022/12/29 07:30:28;;;;;;;0.90;0.90;;;;;;;2.49;64.02;101149.44;18692421;31;20112;-57
2022/12/29 07:40:33;;;;;;;0.70;0.70;;;;;;;2.65;63.82;101152.69;18694404;31;20450;-57
2022/12/29 07:50:36;;;;;;;0.80;0.80;;;;;;;2.83;63.65;101149.13;18693728;31;20100;-57
2022/12/29 08:00:42;;;;;;;6.35;1.77;;;;;;;2.82;64.61;101170.56;18693349;31;20106;-57
2022/12/29 08:10:45;;;;;;;1.62;1.40;;;;;;;2.94;64.84;101158.19;18698910;31;20088;-58
2022/12/29 08:20:50;;;;;;;0.80;0.80;;;;;;;3.09;64.62;101145.03;18702726;31;20168;-57
2022/12/29 08:30:58;;;;;;;0.70;0.70;;;;;;;3.27;64.22;101156.91;18729809;31;20155;-57
2022/12/29 08:41:04;;;;;;;5.43;5.12;;;;;;;3.37;64.09;101151.28;18689804;31;20087;-57
2022/12/29 08:51:07;;;;;;;0.88;0.88;;;;;;;3.32;64.12;101140.78;18693277;31;20084;-57
2022/12/29 09:01:12;;;;;;;0.90;0.90;;;;;;;3.79;63.11;101139.97;18681004;31;20361;-57
2022/12/29 09:11:23;;;;;;;1.40;1.30;;;;;;;3.99;62.90;101148.47;18629034;31;20136;-58
2022/12/29 09:21:35;;;;;;;0.85;0.85;;;;;;;3.70;63.54;101125.03;18674103;31;20142;-57
2022/12/29 09:31:41;;;;;;;3.62;1.73;;;;;;;3.97;62.06;101101.00;18626389;31;20088;-58
2022/12/29 09:41:51;;;;;;;1.48;1.37;;;;;;;4.37;61.81;101095.50;18639720;31;20100;-59
2022/12/29 09:51:57;;;;;;;1.05;0.90;;;;;;;4.58;61.26;101098.81;18566049;31;20116;-59
2022/12/29 10:02:07;;;;;;;0.60;0.60;;;;;;;4.92;60.63;101069.69;18425052;32;20102;-59
2022/12/29 10:12:23;;;;;;;1.12;1.12;;;;;;;5.03;60.09;101051.94;18364147;32;20090;-59
2022/12/29 10:22:38;;;;;;;0.60;0.60;;;;;;;5.34;59.22;101053.75;18424211;32;20093;-59
2022/12/29 10:32:47;;;;;;;0.77;0.77;;;;;;;4.85;60.82;101051.41;18397131;32;20449;-59
2022/12/29 10:42:54;;;;;;;0.70;0.70;;;;;;;5.14;59.45;101053.13;18407981;32;20089;-59
2022/12/29 10:52:59;;;;;;;1.33;1.23;;;;;;;4.76;61.05;101033.00;18381516;32;20105;-60
2022/12/29 11:03:28;;;;;;;1.23;1.23;;;;;;;5.51;59.02;101030.06;18354561;32;20985;-59
2022/12/29 11:13:33;;;;;;;0.70;0.70;;;;;;;5.77;58.03;101020.44;18413238;32;20169;-59
2022/12/29 11:23:43;;;;;;;0.90;0.90;;;;;;;4.70;61.33;101009.53;18387368;32;20100;-59
2022/12/29 11:33:47;;;;;;;1.05;1.05;;;;;;;5.36;58.78;101008.06;18371197;32;20149;-59
2022/12/29 11:43:53;;;;;;;0.88;0.88;;;;;;;4.94;61.03;100999.06;18406190;32;20142;-59
2022/12/29 11:53:59;;;;;;;1.30;1.27;;;;;;;5.26;60.08;100993.09;18356641;32;20101;-59
2022/12/29 12:04:05;;;;;;;3.05;2.85;;;;;;;5.40;59.80;100996.94;18354888;32;20131;-59
2022/12/29 12:14:16;;;;;;;1.25;1.15;;;;;;;5.25;59.85;100993.94;18386806;32;20111;-59
2022/12/29 12:24:33;;;;;;;0.57;0.57;;;;;;;4.97;60.38;100956.88;18410496;32;20112;-59
2022/12/29 12:34:39;;;;;;;0.80;0.80;;;;;;;4.89;61.75;100940.25;18370220;32;20354;-59
2022/12/29 12:44:52;;;;;;;1.17;1.17;;;;;;;5.78;61.71;100926.31;18392313;32;20105;-59
2022/12/29 12:55:08;;;;;;;1.20;1.20;;;;;;;6.55;57.71;100917.81;18356077;32;20105;-59
2022/12/29 13:05:25;;;;;;;1.00;1.00;;;;;;;5.30;60.71;100919.84;18358850;31;20355;-59
2022/12/29 13:15:41;;;;;;;1.20;1.20;;;;;;;5.93;58.67;100924.97;18397131;32;20123;-59
2022/12/29 13:25:51;;;;;;;1.10;1.10;;;;;;;6.57;57.14;100927.38;18354932;31;20097;-59
2022/12/29 13:35:58;;;;;;;2.05;1.90;;;;;;;5.99;58.35;100927.69;18390546;32;20101;-59
2022/12/29 13:46:07;;;;;;;3.03;2.80;;;;;;;5.73;58.98;100940.00;18379380;32;20101;-59
2022/12/29 13:56:14;;;;;;;1.10;1.10;;;;;;;6.03;58.63;100942.53;18400225;31;20111;-59
2022/12/29 14:06:24;;;;;;;1.62;1.45;;;;;;;6.11;58.10;100966.91;18390929;32;20101;-59
2022/12/29 14:16:33;;;;;;;0.60;0.60;;;;;;;6.12;57.87;100949.66;18361719;32;20097;-59
2022/12/29 14:26:38;;;;;;;1.33;1.27;;;;;;;5.23;60.65;100944.69;18403681;32;20384;-60
2022/12/29 14:36:42;;;;;;;0.80;0.80;;;;;;;4.39;64.13;100965.44;18408033;32;20090;-60
2022/12/29 14:46:56;;;;;;;2.08;1.98;;;;;;;4.02;65.27;100946.16;18384817;32;20445;-60
2022/12/29 14:57:00;;;;;;;1.23;1.20;;;;;;;4.96;61.47;100978.41;18372718;32;20105;-60
2022/12/29 15:07:08;;;;;;;7.87;7.18;;;;;;;4.12;64.22;100983.53;18396976;32;20104;-59
2022/12/29 15:17:24;;;;;;;0.93;0.93;;;;;;;4.60;62.63;100981.63;18412533;32;20085;-60
2022/12/29 15:27:30;;;;;;;1.45;1.35;;;;;;;4.60;61.27;100990.25;18390972;32;20093;-60
2022/12/29 15:37:35;;;;;;;1.85;1.75;;;;;;;4.47;61.42;100998.44;18382074;32;20097;-59
2022/12/29 15:47:41;;;;;;;1.27;1.12;;;;;;;4.27;61.85;100989.22;18392061;31;20111;-59
2022/12/29 15:57:44;;;;;;;4.18;1.25;;;;;;;4.21;62.07;100986.41;18373118;32;20128;-60
2022/12/29 16:07:57;;;;;;;0.95;0.95;;;;;;;4.05;62.07;100991.88;18389827;32;20105;-59
2022/12/29 16:18:00;;;;;;;0.80;0.80;;;;;;;4.05;62.05;100987.62;18356621;32;20108;-60
2022/12/29 16:28:17;;;;;;;0.73;0.73;;;;;;;4.01;62.47;100985.72;18394230;32;20116;-59
2022/12/29 16:38:22;;;;;;;1.08;1.08;;;;;;;3.80;63.53;100979.00;18384401;32;20493;-60
2022/12/29 16:48:28;;;;;;;1.00;1.00;;;;;;;3.84;63.04;100987.75;18352727;32;20184;-60
2022/12/29 16:58:31;;;;;;;0.60;0.60;;;;;;;3.78;63.23;101001.31;18357222;32;20097;-60
2022/12/29 17:08:42;;;;;;;0.88;0.88;;;;;;;3.64;63.42;101011.16;18375671;32;20107;-59
2022/12/29 17:18:45;;;;;;;1.90;1.80;;;;;;;3.55;63.06;101016.00;18410821;32;20097;-60
2022/12/29 17:28:49;;;;;;;4.00;3.60;;;;;;;3.44;62.59;101018.16;18395117;32;20115;-60
2022/12/29 17:38:52;;;;;;;0.80;0.80;;;;;;;3.09;63.69;101021.19;18388345;32;20411;-60
2022/12/29 17:48:57;;;;;;;2.15;2.05;;;;;;;3.30;62.29;101009.91;18393480;31;20356;-60
2022/12/29 17:59:00;;;;;;;1.90;1.75;;;;;;;2.94;63.42;101000.84;18403396;32;20128;-59
2022/12/29 18:09:07;;;;;;;6.55;5.55;;;;;;;2.83;64.25;100997.84;18406222;32;20432;-60
2022/12/29 18:19:11;;;;;;;1.00;0.98;;;;;;;2.89;63.71;100976.56;18420617;32;20342;-60
2022/12/29 18:29:15;;;;;;;1.12;1.10;;;;;;;2.86;63.35;100979.94;18422771;32;20169;-60
2022/12/29 18:39:19;;;;;;;2.42;2.25;;;;;;;2.65;64.19;100985.13;18413039;32;20122;-60
2022/12/29 18:49:30;;;;;;;0.77;0.77;;;;;;;2.83;63.31;100964.31;18393439;31;20101;-59
2022/12/29 18:59:33;;;;;;;2.37;2.28;;;;;;;2.70;63.36;100970.69;18421931;32;20150;-59
2022/12/29 19:09:37;;;;;;;0.82;0.82;;;;;;;2.43;64.39;100955.03;18368622;32;20097;-60
2022/12/29 19:19:41;;;;;;;4.72;4.40;;;;;;;2.66;63.48;100967.97;18416005;32;20099;-60
2022/12/29 19:29:46;;;;;;;2.17;2.08;;;;;;;2.35;64.09;100959.88;18359310;32;20452;-59
2022/12/29 19:39:49;;;;;;;2.00;1.90;;;;;;;2.42;63.43;100959.31;18356253;32;20105;-59
2022/12/29 19:49:54;;;;;;;1.60;1.50;;;;;;;2.39;63.45;100960.88;18356537;32;20124;-59
2022/12/29 19:59:58;;;;;;;3.45;3.17;;;;;;;2.38;63.19;100951.41;18392122;32;20447;-59
2022/12/29 20:10:02;;;;;;;5.37;4.82;;;;;;;2.08;63.70;100945.91;18418322;32;20099;-59
2022/12/29 20:20:07;;;;;;;5.62;5.28;;;;;;;2.21;63.18;100939.56;18413270;32;20147;-59
2022/12/29 20:30:13;;;;;;;2.90;2.80;;;;;;;2.16;63.12;100938.50;18367846;32;20113;-59
2022/12/29 20:40:17;;;;;;;1.15;1.15;;;;;;;1.96;63.53;100937.69;18376826;32;20116;-59
2022/12/29 20:50:21;;;;;;;3.78;3.47;;;;;;;2.01;63.54;100935.31;18391241;31;20097;-60
2022/12/29 21:00:25;;;;;;;2.78;2.53;;;;;;;1.79;63.38;100936.97;18407122;31;20112;-59
2022/12/29 21:10:29;;;;;;;3.58;2.85;;;;;;;1.83;63.08;100938.00;18354942;32;20141;-59
2022/12/29 21:20:32;;;;;;;16.30;3.72;;;;;;;1.70;63.18;100941.75;18376412;32;20097;-59
2022/12/29 21:30:37;;;;;;;3.83;3.55;;;;;;;1.55;63.47;100954.84;18392496;32;20089;-60
2022/12/29 21:40:40;;;;;;;4.90;4.50;;;;;;;1.66;63.19;100940.72;18370589;31;20120;-59
2022/12/29 22:21:59;;;;;;;1.33;1.27;;;;;;;1.58;63.43;100939.50;18487044;32;20116;-59
2022/12/29 22:32:04;;;;;;;3.47;3.30;;;;;;;1.30;63.87;100920.31;18487753;32;20139;-59
2022/12/29 22:42:08;;;;;;;1.23;1.12;;;;;;;1.37;63.56;100924.91;18359423;32;20173;-59
2022/12/29 22:52:12;;;;;;;0.88;0.88;;;;;;;1.57;63.79;100920.63;18359926;32;20093;-59
2022/12/29 23:02:16;;;;;;;0.85;0.85;;;;;;;1.74;64.87;100917.88;18351768;32;20121;-59
2022/12/29 23:12:21;;;;;;;0.95;0.95;;;;;;;1.98;65.11;100915.44;18359354;32;20093;-59
2022/12/29 23:22:24;;;;;;;3.97;2.78;;;;;;;1.98;65.76;100904.28;18355980;32;20094;-60
2022/12/29 23:32:28;;;;;;;1.65;1.60;;;;;;;2.32;65.18;100885.91;18352612;32;20148;-60
2022/12/29 23:42:32;;;;;;;1.67;1.58;;;;;;;2.53;65.08;100876.38;18353854;32;20133;-59
2022/12/29 23:52:36;;;;;;;2.10;2.00;;;;;;;2.45;65.92;100873.50;18378305;31;20376;-59
